Time;durP1;ratioP1;P1;durP2;ratioP2;P2;SDS_P1;SDS_P2;PMS_P1;PMS_P2;Temp;Humidity;BMP_temperature;BMP_pressure;BME280_temperature;BME280_humidity;BME280_pressure;Samples;Min_cycle;Max_cycle;Signal;HPM_P1;HPM_P2
2022/11/20 00:00:28;;;;;;;17.32;10.93;;;26.20;91.50;;;;;;1898140;75;21170;-83
2022/11/20 00:02:59;;;;;;;18.25;10.98;;;26.20;91.30;;;;;;1900579;75;21497;-84
2022/11/20 00:05:30;;;;;;;21.82;11.18;;;26.20;91.30;;;;;;1915594;74;21220;-83
2022/11/20 00:08:01;;;;;;;16.60;10.65;;;26.30;91.40;;;;;;1918053;74;21065;-83
2022/11/20 00:10:32;;;;;;;14.85;10.00;;;26.30;91.30;;;;;;1906831;74;21650;-84
2022/11/20 00:13:03;;;;;;;15.60;10.60;;;26.30;91.20;;;;;;1894921;74;22671;-83
2022/11/20 00:15:34;;;;;;;13.98;9.65;;;26.40;91.00;;;;;;1917024;74;21051;-84
2022/11/20 00:18:05;;;;;;;12.95;9.40;;;26.40;90.90;;;;;;1833611;77;21208;-86
2022/11/20 00:20:36;;;;;;;15.08;9.10;;;26.50;90.80;;;;;;1849208;76;21177;-85
2022/11/20 00:23:07;;;;;;;13.55;9.50;;;26.50;90.60;;;;;;1851431;76;21151;-85
2022/11/20 00:25:37;;;;;;;19.65;9.95;;;26.50;90.50;;;;;;1911981;74;21229;-85
2022/11/20 00:28:13;;;;;;;18.02;9.63;;;26.60;90.50;;;;;;1915660;74;21045;-86
2022/11/20 00:30:44;;;;;;;16.73;9.63;;;26.60;90.40;;;;;;1901239;74;21128;-84
2022/11/20 00:33:15;;;;;;;12.93;8.85;;;26.60;90.30;;;;;;1911075;74;21155;-85
2022/11/20 00:35:46;;;;;;;12.98;9.33;;;26.60;90.20;;;;;;1901672;74;21702;-86
2022/11/20 00:38:17;;;;;;;17.98;9.33;;;26.60;90.20;;;;;;1905377;74;21183;-86
2022/11/20 00:40:57;;;;;;;11.40;8.85;;;26.70;90.10;;;;;;1863214;76;21192;-85
2022/11/20 00:43:34;;;;;;;13.85;8.80;;;26.70;90.00;;;;;;1855087;76;21143;-86
2022/11/20 00:46:16;;;;;;;13.83;8.95;;;26.70;89.70;;;;;;1893663;74;21177;-87
2022/11/20 00:48:47;;;;;;;13.95;9.08;;;26.70;90.00;;;;;;1905016;74;21599;-85
2022/11/20 00:51:21;;;;;;;13.93;9.10;;;26.80;90.00;;;;;;1907471;74;21584;-85
2022/11/20 00:53:52;;;;;;;15.65;9.53;;;26.80;90.00;;;;;;1921580;74;21155;-86
2022/11/20 00:56:22;;;;;;;16.80;10.08;;;26.80;90.50;;;;;;1901288;74;21088;-85
2022/11/20 00:59:04;;;;;;;15.23;9.58;;;26.90;90.00;;;;;;1907539;74;21186;-84
2022/11/20 01:01:40;;;;;;;14.98;9.25;;;26.90;89.80;;;;;;1910913;74;21177;-85
2022/11/20 01:04:10;;;;;;;15.13;10.03;;;26.90;89.70;;;;;;1918063;74;21144;-85
2022/11/20 01:06:42;;;;;;;13.75;9.80;;;27.00;89.70;;;;;;1880646;75;21175;-84
2022/11/20 01:09:16;;;;;;;13.98;9.68;;;27.10;89.70;;;;;;1884153;75;21165;-85
2022/11/20 01:11:50;;;;;;;18.80;11.25;;;27.10;89.60;;;;;;1883617;74;21528;-85
2022/11/20 01:14:21;;;;;;;13.38;9.10;;;27.20;89.40;;;;;;1898869;75;21120;-85
2022/11/20 01:17:05;;;;;;;15.32;10.45;;;27.20;89.10;;;;;;1892593;75;21513;-86
2022/11/20 01:19:36;;;;;;;18.30;10.08;;;27.30;89.00;;;;;;1888100;75;21097;-86
2022/11/20 01:22:07;;;;;;;14.07;9.65;;;27.30;89.10;;;;;;1889187;75;21113;-86
2022/11/20 01:24:38;;;;;;;13.08;9.43;;;27.30;88.80;;;;;;1890912;75;21132;-86
2022/11/20 01:27:08;;;;;;;16.82;9.73;;;27.40;89.60;;;;;;1889879;75;21612;-85
2022/11/20 01:29:45;;;;;;;15.32;10.43;;;27.40;88.60;;;;;;1890150;75;21100;-85
2022/11/20 01:32:13;;;;;;;15.48;9.68;;;27.40;88.40;;;;;;1882949;75;21113;-85
2022/11/20 01:34:48;;;;;;;15.48;10.25;;;27.50;88.60;;;;;;1884393;75;21145;-85
2022/11/20 01:37:19;;;;;;;15.85;11.43;;;27.50;88.50;;;;;;1877740;75;21175;-86
2022/11/20 01:39:50;;;;;;;16.97;10.23;;;27.50;88.50;;;;;;1886810;75;21253;-86
2022/11/20 01:45:45;;;;;;;20.77;12.33;;;27.60;88.20;;;;;;1882145;75;21097;-85
2022/11/20 01:48:16;;;;;;;18.05;11.93;;;27.60;88.50;;;;;;1890596;75;21108;-86
2022/11/20 01:50:47;;;;;;;15.53;11.60;;;27.60;88.20;;;;;;1879831;75;21564;-86
2022/11/20 01:53:21;;;;;;;16.50;10.88;;;27.60;88.30;;;;;;1874572;75;21049;-86
2022/11/20 01:55:54;;;;;;;16.80;11.60;;;27.70;88.20;;;;;;1884585;75;21719;-85
2022/11/20 01:58:29;;;;;;;19.65;11.40;;;27.70;87.80;;;;;;1823699;77;21116;-86
2022/11/20 02:01:00;;;;;;;18.12;9.65;;;27.70;87.50;;;;;;1832188;77;21129;-85
2022/11/20 02:03:31;;;;;;;12.45;9.45;;;27.80;87.20;;;;;;1888890;75;21249;-86
2022/11/20 02:06:17;;;;;;;13.88;8.58;;;27.80;86.60;;;;;;1900748;74;21189;-84
2022/11/20 02:08:48;;;;;;;18.50;8.87;;;27.80;86.70;;;;;;1911753;74;21193;-86
2022/11/20 02:11:19;;;;;;;12.43;7.55;;;27.90;86.50;;;;;;1898466;74;21157;-86
2022/11/20 02:13:50;;;;;;;12.23;7.70;;;28.00;86.20;;;;;;1907430;74;21084;-83
2022/11/20 02:16:23;;;;;;;13.43;8.18;;;28.00;85.90;;;;;;1898843;74;21158;-85
2022/11/20 02:18:58;;;;;;;14.75;7.53;;;28.10;85.50;;;;;;1914329;74;21052;-86
2022/11/20 02:21:59;;;;;;;12.55;7.58;;;28.10;85.50;;;;;;1899175;74;21225;-83
2022/11/20 02:24:31;;;;;;;9.83;6.75;;;28.20;84.90;;;;;;1920004;74;21127;-86
2022/11/20 02:27:05;;;;;;;11.88;8.30;;;28.20;84.90;;;;;;1906637;74;21065;-84
2022/11/20 02:29:53;;;;;;;12.95;8.13;;;28.20;84.70;;;;;;1904465;74;21118;-85
2022/11/20 02:32:30;;;;;;;10.98;8.08;;;28.20;84.40;;;;;;1902669;74;21174;-86
2022/11/20 02:35:09;;;;;;;13.75;9.35;;;28.30;84.40;;;;;;1908469;74;21197;-86
2022/11/20 02:37:46;;;;;;;14.07;9.63;;;28.30;84.10;;;;;;1899440;74;21181;-86
2022/11/20 02:40:17;;;;;;;15.63;9.48;;;28.20;84.20;;;;;;1907277;74;21189;-87
2022/11/20 02:42:55;;;;;;;13.10;8.25;;;28.20;84.40;;;;;;1903722;74;21203;-88
2022/11/20 02:45:29;;;;;;;14.05;8.93;;;28.20;84.50;;;;;;1908807;74;21107;-87
2022/11/20 02:48:00;;;;;;;15.75;9.40;;;28.20;84.60;;;;;;1900254;74;21213;-86
2022/11/20 02:50:30;;;;;;;12.85;9.23;;;28.20;84.80;;;;;;1919668;74;21556;-86
2022/11/20 02:53:03;;;;;;;14.35;9.28;;;28.30;84.70;;;;;;1919555;74;21155;-84
2022/11/20 02:55:34;;;;;;;16.65;9.95;;;28.30;84.60;;;;;;1918081;73;21025;-84
2022/11/20 02:58:23;;;;;;;15.35;10.45;;;28.30;84.80;;;;;;1909160;74;21203;-85
2022/11/20 03:00:56;;;;;;;11.75;8.90;;;28.30;85.10;;;;;;1915149;71;21103;-86
2022/11/20 03:03:26;;;;;;;12.15;9.38;;;28.30;84.90;;;;;;1906679;73;21127;-89
2022/11/20 03:05:58;;;;;;;13.38;9.18;;;28.30;85.10;;;;;;1904388;74;21198;-86
2022/11/20 03:08:33;;;;;;;12.07;8.73;;;28.20;85.20;;;;;;1901112;75;21600;-88
2022/11/20 03:11:08;;;;;;;16.02;9.25;;;28.30;85.40;;;;;;1885418;75;21229;-87
2022/11/20 03:13:41;;;;;;;12.25;7.92;;;28.30;85.50;;;;;;1884833;75;21190;-87
2022/11/20 03:16:19;;;;;;;12.90;8.03;;;28.40;85.60;;;;;;1880101;75;21085;-88
2022/11/20 03:18:47;;;;;;;13.45;7.72;;;28.40;85.30;;;;;;1885684;74;21066;-87
2022/11/20 03:21:18;;;;;;;14.35;7.03;;;28.50;85.10;;;;;;1901388;75;21076;-86
2022/11/20 03:23:49;;;;;;;10.00;6.60;;;28.60;84.00;;;;;;1890903;75;21069;-87
2022/11/20 03:26:21;;;;;;;10.50;6.60;;;28.60;84.00;;;;;;1879473;75;21190;-87
2022/11/20 03:28:58;;;;;;;13.90;6.30;;;28.70;83.20;;;;;;1893435;74;21046;-87
2022/11/20 03:31:31;;;;;;;9.20;6.75;;;28.70;82.50;;;;;;1895243;75;21081;-86
2022/11/20 03:34:02;;;;;;;12.63;6.33;;;28.70;82.60;;;;;;1873255;75;21081;-85
2022/11/20 03:36:33;;;;;;;9.10;5.90;;;28.80;82.30;;;;;;1882811;75;21155;-86
2022/11/20 03:39:09;;;;;;;10.48;6.00;;;28.80;81.80;;;;;;1888879;75;21144;-88
2022/11/20 03:41:41;;;;;;;14.53;6.35;;;28.90;81.60;;;;;;1891910;75;21145;-87
2022/11/20 03:44:18;;;;;;;10.28;6.00;;;28.90;81.80;;;;;;1876974;75;21132;-87
2022/11/20 03:46:50;;;;;;;8.90;6.28;;;28.90;81.80;;;;;;1885674;75;21210;-89
2022/11/20 03:49:21;;;;;;;11.78;6.15;;;28.90;81.30;;;;;;1893715;75;21242;-86
2022/11/20 03:51:52;;;;;;;10.15;6.40;;;29.00;81.60;;;;;;1878895;75;21081;-87
2022/11/20 03:54:23;;;;;;;11.78;5.92;;;29.00;81.90;;;;;;1886877;75;21074;-87
2022/11/20 03:56:55;;;;;;;8.13;5.15;;;29.10;81.00;;;;;;1886951;74;21131;-87
2022/11/20 03:59:26;;;;;;;9.83;5.65;;;29.20;80.40;;;;;;1885475;75;21077;-87
2022/11/20 04:01:57;;;;;;;8.08;5.00;;;29.30;80.60;;;;;;1883721;75;21164;-87
2022/11/20 04:04:28;;;;;;;7.65;5.03;;;29.30;79.70;;;;;;1813409;78;21080;-88
2022/11/20 04:07:17;;;;;;;8.23;4.95;;;29.40;79.40;;;;;;1851503;76;21096;-88
2022/11/20 04:09:49;;;;;;;7.72;4.95;;;29.50;79.70;;;;;;1896132;75;21269;-88
2022/11/20 04:12:27;;;;;;;8.63;5.10;;;29.70;79.10;;;;;;1888475;75;21105;-87
2022/11/20 04:15:04;;;;;;;8.95;5.12;;;29.90;78.10;;;;;;1894439;75;21600;-88
2022/11/20 04:17:47;;;;;;;9.55;5.12;;;30.00;77.50;;;;;;1887075;75;21167;-88
2022/11/20 04:20:21;;;;;;;10.32;5.10;;;30.00;76.70;;;;;;1871821;75;21097;-90
2022/11/20 04:22:54;;;;;;;8.23;5.35;;;30.00;76.70;;;;;;1889323;75;21182;-88
2022/11/20 04:25:25;;;;;;;8.00;4.87;;;29.90;76.50;;;;;;1894639;75;21156;-89
2022/11/20 04:27:58;;;;;;;9.58;5.15;;;29.90;76.50;;;;;;1887057;75;21174;-89
2022/11/20 04:30:30;;;;;;;6.65;4.75;;;29.90;76.40;;;;;;1872681;75;21266;-91
2022/11/20 04:33:08;;;;;;;9.80;5.10;;;29.80;77.00;;;;;;1876229;75;21144;-88
2022/11/20 04:35:37;;;;;;;8.33;4.70;;;29.80;76.90;;;;;;1887153;74;21244;-89
2022/11/20 04:38:09;;;;;;;7.47;4.80;;;29.80;76.60;;;;;;1886664;75;21058;-88
2022/11/20 04:40:41;;;;;;;7.03;4.58;;;29.80;74.90;;;;;;1882273;75;21081;-88
2022/11/20 04:43:13;;;;;;;8.98;4.70;;;29.80;76.20;;;;;;1855396;77;21170;-88
2022/11/20 04:45:45;;;;;;;8.40;4.70;;;29.80;75.50;;;;;;1873848;75;21238;-87
2022/11/20 04:48:25;;;;;;;6.37;4.80;;;29.80;75.50;;;;;;1895152;75;21151;-89
2022/11/20 04:51:05;;;;;;;7.55;4.60;;;29.80;75.90;;;;;;1822594;77;21073;-87
2022/11/20 04:53:36;;;;;;;10.58;5.50;;;29.70;76.20;;;;;;1879622;75;21637;-90
2022/11/20 04:56:10;;;;;;;8.45;4.80;;;29.70;75.90;;;;;;1873887;75;21175;-89
2022/11/20 04:58:46;;;;;;;7.25;4.28;;;29.80;76.50;;;;;;1879469;75;21109;-89
2022/11/20 05:01:25;;;;;;;6.42;3.85;;;29.80;75.10;;;;;;1824791;77;21151;-90
2022/11/20 05:03:59;;;;;;;5.92;4.55;;;29.80;75.10;;;;;;1889971;75;21749;-90
2022/11/20 05:06:30;;;;;;;8.05;4.45;;;29.80;75.20;;;;;;1887799;75;21132;-89
2022/11/20 05:09:02;;;;;;;7.33;4.72;;;29.80;74.80;;;;;;1893940;75;21159;-87
2022/11/20 05:11:33;;;;;;;6.17;4.53;;;29.90;74.30;;;;;;1897280;75;21190;-88
2022/11/20 05:14:04;;;;;;;9.68;4.80;;;29.90;74.50;;;;;;1897783;75;21198;-91
2022/11/20 05:16:36;;;;;;;6.60;4.37;;;29.90;74.10;;;;;;1875139;75;21791;-88
2022/11/20 05:19:07;;;;;;;7.42;4.62;;;29.90;74.40;;;;;;1891538;75;21140;-87
2022/11/20 05:22:02;;;;;;;6.55;4.45;;;30.00;73.90;;;;;;1871337;75;21114;-90
2022/11/20 05:24:31;;;;;;;8.18;4.22;;;30.00;73.00;;;;;;1862811;76;21145;-88
2022/11/20 05:27:02;;;;;;;6.90;5.15;;;30.10;73.40;;;;;;1878146;75;21184;-87
2022/11/20 05:29:33;;;;;;;6.30;4.37;;;30.10;73.30;;;;;;1890580;75;21202;-88
2022/11/20 05:32:07;;;;;;;6.72;4.65;;;30.20;73.30;;;;;;1891483;75;21132;-90
2022/11/20 05:34:37;;;;;;;7.28;4.60;;;30.30;73.00;;;;;;1889887;75;21046;-89
2022/11/20 05:37:08;;;;;;;6.30;4.60;;;30.30;73.40;;;;;;1895088;75;21176;-88
2022/11/20 05:39:39;;;;;;;7.75;4.85;;;30.30;73.30;;;;;;1893112;75;21230;-88
2022/11/20 05:45:01;;;;;;;9.98;6.00;;;30.40;72.70;;;;;;1895642;75;21089;-88
2022/11/20 05:47:35;;;;;;;7.10;4.58;;;30.50;73.00;;;;;;1872844;75;21096;-90
2022/11/20 05:50:07;;;;;;;9.30;4.95;;;30.50;72.70;;;;;;1889022;75;21104;-89
2022/11/20 05:52:38;;;;;;;7.47;4.83;;;30.60;72.10;;;;;;1886797;75;21636;-88
2022/11/20 05:55:09;;;;;;;7.33;4.45;;;30.60;71.50;;;;;;1885597;75;21601;-88
2022/11/20 05:57:40;;;;;;;6.78;4.17;;;30.60;71.60;;;;;;1885964;75;21632;-88
2022/11/20 06:00:12;;;;;;;8.08;4.22;;;30.60;71.50;;;;;;1881616;75;21140;-88
2022/11/20 06:02:43;;;;;;;7.78;4.42;;;30.60;70.90;;;;;;1876346;75;21197;-88
2022/11/20 06:05:18;;;;;;;7.70;3.75;;;30.50;71.00;;;;;;1879497;75;21162;-88
2022/11/20 06:07:49;;;;;;;6.10;3.95;;;30.60;71.60;;;;;;1883365;74;21125;-87
2022/11/20 06:10:20;;;;;;;7.90;5.15;;;30.60;70.80;;;;;;1914855;74;21159;-87
2022/11/20 06:12:50;;;;;;;5.40;4.12;;;30.50;70.90;;;;;;1902107;74;21793;-87
2022/11/20 06:15:21;;;;;;;6.03;4.10;;;30.50;70.80;;;;;;1908893;74;21186;-85
2022/11/20 06:17:58;;;;;;;7.95;4.58;;;30.50;70.50;;;;;;1892774;74;21103;-87
2022/11/20 06:20:29;;;;;;;6.40;4.50;;;30.50;70.40;;;;;;1898222;74;21629;-87
2022/11/20 06:23:00;;;;;;;6.30;3.95;;;30.50;71.40;;;;;;1900388;74;21131;-87
2022/11/20 06:25:31;;;;;;;8.83;4.05;;;30.50;70.90;;;;;;1928249;74;21140;-86
2022/11/20 06:28:02;;;;;;;7.83;4.50;;;30.50;70.10;;;;;;1899624;74;21237;-87
2022/11/20 06:30:35;;;;;;;7.03;4.22;;;30.50;70.50;;;;;;1907001;74;21160;-87
2022/11/20 06:33:05;;;;;;;6.70;4.30;;;30.50;69.20;;;;;;1899480;74;21148;-86
2022/11/20 06:35:36;;;;;;;6.17;4.20;;;30.60;70.40;;;;;;1918929;74;21143;-86
2022/11/20 06:38:07;;;;;;;6.50;3.77;;;30.60;69.40;;;;;;1897581;74;21486;-86
2022/11/20 06:40:42;;;;;;;7.25;4.28;;;30.70;69.40;;;;;;1912501;74;21177;-86
2022/11/20 06:43:14;;;;;;;7.58;4.33;;;30.70;69.10;;;;;;1914620;74;21128;-86
2022/11/20 06:45:45;;;;;;;5.20;4.08;;;30.70;69.30;;;;;;1917067;74;21064;-87
2022/11/20 06:48:16;;;;;;;6.75;4.42;;;30.80;69.70;;;;;;1904805;74;21128;-87
2022/11/20 06:50:47;;;;;;;5.72;4.40;;;30.80;70.30;;;;;;1916674;74;21586;-87
2022/11/20 06:53:18;;;;;;;6.25;4.45;;;30.80;70.30;;;;;;1896490;74;21588;-86
2022/11/20 06:55:51;;;;;;;7.22;4.78;;;30.80;70.60;;;;;;1902073;74;21181;-88
2022/11/20 06:58:22;;;;;;;8.33;4.70;;;30.90;70.30;;;;;;1917086;74;21100;-88
2022/11/20 07:00:53;;;;;;;9.33;4.45;;;30.90;70.40;;;;;;1897303;74;21615;-88
2022/11/20 07:03:25;;;;;;;10.23;4.87;;;30.90;70.70;;;;;;1902367;74;21080;-86
2022/11/20 07:06:00;;;;;;;7.67;4.53;;;30.90;70.70;;;;;;1902968;74;21221;-86
2022/11/20 07:08:34;;;;;;;7.28;4.55;;;31.00;70.10;;;;;;1889299;74;21610;-87
2022/11/20 07:11:07;;;;;;;7.90;4.40;;;31.00;70.30;;;;;;1884144;75;21135;-87
2022/11/20 07:13:38;;;;;;;10.88;5.00;;;31.00;70.30;;;;;;1891537;75;21613;-87
2022/11/20 07:16:10;;;;;;;12.00;5.85;;;31.00;70.50;;;;;;1871715;75;21665;-85
2022/11/20 07:18:43;;;;;;;8.08;5.35;;;31.00;70.40;;;;;;1891345;75;21093;-86
2022/11/20 07:21:14;;;;;;;7.83;5.10;;;31.00;70.80;;;;;;1894645;74;21229;-87
2022/11/20 07:23:45;;;;;;;7.37;5.08;;;31.00;70.60;;;;;;1902063;75;21162;-87
2022/11/20 07:26:16;;;;;;;7.95;5.08;;;31.10;71.00;;;;;;1889217;75;21194;-87
2022/11/20 07:28:47;;;;;;;10.00;4.80;;;31.10;71.00;;;;;;1885010;75;21130;-86
2022/11/20 07:31:27;;;;;;;9.78;4.97;;;31.10;71.10;;;;;;1884756;75;21113;-88
2022/11/20 07:43:59;;;;;;;8.50;4.33;;;31.20;69.20;;;;;;1772071;78;21212;-87
2022/11/20 07:46:29;;;;;;;7.72;4.40;;;31.20;69.00;;;;;;1874033;75;21180;-88
2022/11/20 07:49:01;;;;;;;8.60;3.98;;;31.20;68.40;;;;;;1890939;75;21953;-87
2022/11/20 07:51:33;;;;;;;6.75;4.28;;;31.20;68.00;;;;;;1883363;75;21128;-87
2022/11/20 07:54:05;;;;;;;5.97;3.60;;;31.10;68.00;;;;;;1882025;75;21786;-87
2022/11/20 07:56:38;;;;;;;6.08;3.87;;;31.20;67.30;;;;;;1887990;75;21580;-87
2022/11/20 07:59:11;;;;;;;6.85;3.27;;;31.20;67.70;;;;;;1888685;75;21124;-86
2022/11/20 08:01:42;;;;;;;6.03;2.95;;;31.10;64.30;;;;;;1885521;75;21186;-85
2022/11/20 08:04:30;;;;;;;6.08;3.83;;;31.10;65.10;;;;;;1875789;75;21202;-86
2022/11/20 08:07:03;;;;;;;4.10;3.27;;;31.10;66.20;;;;;;1866038;75;21127;-85
2022/11/20 08:09:40;;;;;;;6.60;3.22;;;31.10;65.50;;;;;;1882466;75;21077;-84
2022/11/20 08:15:11;;;;;;;7.70;3.75;;;31.00;64.40;;;;;;1885554;75;21187;-85
2022/11/20 08:17:42;;;;;;;8.15;3.80;;;31.00;64.40;;;;;;1883545;75;21404;-84
2022/11/20 08:20:32;;;;;;;6.50;4.03;;;31.00;64.50;;;;;;1867484;75;21514;-86
2022/11/20 08:23:05;;;;;;;8.28;4.42;;;31.00;65.60;;;;;;1885086;75;21652;-85
2022/11/20 08:25:40;;;;;;;8.28;3.80;;;31.00;65.60;;;;;;1903744;75;21077;-84
2022/11/20 08:28:14;;;;;;;4.67;3.30;;;31.00;65.10;;;;;;1887795;75;21077;-84
2022/11/20 08:30:50;;;;;;;5.70;3.62;;;30.90;65.00;;;;;;1901806;74;21185;-84
2022/11/20 08:33:20;;;;;;;7.03;3.55;;;30.90;65.70;;;;;;1892581;75;21148;-84
2022/11/20 08:35:54;;;;;;;7.00;4.00;;;30.90;65.90;;;;;;1895834;73;21097;-86
2022/11/20 08:38:25;;;;;;;5.92;3.25;;;30.90;65.40;;;;;;1901210;72;21053;-85
2022/11/20 08:43:50;;;;;;;5.62;3.45;;;30.90;65.30;;;;;;1906117;75;21199;-84
2022/11/20 08:46:40;;;;;;;5.55;3.40;;;30.80;65.20;;;;;;1894786;74;21140;-85
2022/11/20 08:49:17;;;;;;;5.97;3.50;;;30.80;65.80;;;;;;1869262;75;21184;-85
2022/11/20 08:52:02;;;;;;;6.00;3.58;;;30.80;66.20;;;;;;1892085;74;21133;-87
2022/11/20 08:54:34;;;;;;;5.85;3.40;;;30.90;65.90;;;;;;1863272;74;21678;-85
2022/11/20 08:57:03;;;;;;;4.85;3.65;;;30.90;66.20;;;;;;1887065;74;21132;-84
2022/11/20 08:59:34;;;;;;;9.48;3.77;;;30.80;65.90;;;;;;1881664;74;21255;-86
2022/11/20 09:02:13;;;;;;;6.35;3.22;;;30.80;66.20;;;;;;1897871;75;21122;-85
2022/11/20 09:04:44;;;;;;;7.00;3.42;;;30.80;66.10;;;;;;1897408;75;21624;-84
2022/11/20 09:07:15;;;;;;;5.25;3.70;;;30.80;66.00;;;;;;1875461;75;21164;-84
2022/11/20 09:09:47;;;;;;;5.40;3.37;;;30.80;66.10;;;;;;1880556;75;21144;-86
2022/11/20 09:12:21;;;;;;;4.70;3.00;;;30.70;65.70;;;;;;1885115;75;21084;-83
2022/11/20 09:14:52;;;;;;;7.55;3.20;;;30.70;66.00;;;;;;1894512;75;21140;-85
2022/11/20 09:17:24;;;;;;;8.95;3.15;;;30.70;66.30;;;;;;1898632;75;21093;-85
2022/11/20 09:20:19;;;;;;;6.12;3.27;;;30.60;66.50;;;;;;1894922;75;21545;-84
2022/11/20 09:22:45;;;;;;;5.97;3.30;;;30.60;66.50;;;;;;1865297;75;21057;-85
2022/11/20 09:25:17;;;;;;;5.72;2.95;;;30.60;66.30;;;;;;1896626;75;21592;-85
2022/11/20 09:27:58;;;;;;;;;;;;;;;;;;;;;
2022/11/20 09:33:09;;;;;;;10.88;4.55;;;30.60;66.80;;;;;;1832503;75;21178;-84
2022/11/20 09:35:40;;;;;;;7.15;3.77;;;30.60;67.10;;;;;;1886755;75;21202;-85
2022/11/20 09:38:33;;;;;;;10.18;4.42;;;30.60;67.40;;;;;;1872813;75;21160;-85
2022/11/20 09:41:08;;;;;;;10.30;4.28;;;30.50;67.00;;;;;;1857641;74;21108;-85
2022/11/20 09:44:03;;;;;;;12.15;4.72;;;30.50;68.70;;;;;;1883803;75;21513;-85
2022/11/20 09:47:05;;;;;;;8.98;5.47;;;30.50;67.90;;;;;;1884777;75;21545;-84
2022/11/20 09:50:23;;;;;;;10.20;5.85;;;30.50;68.10;;;;;;1883649;75;21074;-87
2022/11/20 09:53:23;;;;;;;10.23;5.92;;;30.50;67.90;;;;;;1885691;75;21077;-86
2022/11/20 09:55:56;;;;;;;9.03;5.08;;;30.50;68.20;;;;;;1892708;75;21815;-85
2022/11/20 09:58:39;;;;;;;8.65;5.33;;;30.50;68.40;;;;;;1878375;75;21254;-87
2022/11/20 10:01:35;;;;;;;9.48;5.72;;;30.40;68.40;;;;;;1872551;75;21085;-86
2022/11/20 10:04:48;;;;;;;12.90;7.00;;;30.40;68.80;;;;;;1882033;75;21077;-87
2022/11/20 10:07:33;;;;;;;10.82;6.33;;;30.40;69.00;;;;;;1876654;75;21081;-85
2022/11/20 10:10:19;;;;;;;15.43;6.90;;;30.30;69.20;;;;;;1881497;74;21237;-84
2022/11/20 10:12:55;;;;;;;12.13;5.78;;;30.30;70.00;;;;;;1890580;74;21604;-83
2022/11/20 10:15:47;;;;;;;12.50;6.47;;;30.30;70.30;;;;;;1836062;78;21670;-84
2022/11/20 10:18:59;;;;;;;7.92;5.22;;;30.20;70.60;;;;;;1897095;75;21175;-84
2022/11/20 10:22:08;;;;;;;9.28;5.30;;;30.20;71.10;;;;;;1896365;75;21604;-86
2022/11/20 10:24:56;;;;;;;7.50;5.05;;;30.20;71.30;;;;;;1892660;75;21120;-83
2022/11/20 10:27:30;;;;;;;10.65;5.50;;;30.10;71.60;;;;;;1891830;75;21124;-84
2022/11/20 10:30:08;;;;;;;6.80;4.50;;;30.10;71.70;;;;;;1895771;74;21105;-84
2022/11/20 10:32:43;;;;;;;10.15;4.92;;;30.00;71.40;;;;;;1874422;75;21198;-84
2022/11/20 10:35:25;;;;;;;9.60;5.53;;;30.00;71.40;;;;;;1894835;75;21125;-84
2022/11/20 10:38:03;;;;;;;8.85;5.05;;;30.00;71.60;;;;;;1886422;74;21464;-84
2022/11/20 10:40:39;;;;;;;8.43;4.67;;;30.00;71.50;;;;;;1879864;75;21108;-84
2022/11/20 10:43:22;;;;;;;7.47;4.92;;;30.00;71.50;;;;;;1888677;74;21104;-84
2022/11/20 10:46:04;;;;;;;10.60;4.90;;;29.90;71.50;;;;;;1901607;74;21124;-85
2022/11/20 10:48:39;;;;;;;9.25;5.10;;;29.90;71.80;;;;;;1879710;75;21050;-86
2022/11/20 10:51:33;;;;;;;14.03;5.60;;;29.90;72.00;;;;;;1898071;75;21611;-85
2022/11/20 10:54:46;;;;;;;13.50;5.50;;;29.80;72.10;;;;;;1837950;74;21167;-84
2022/11/20 10:58:08;;;;;;;17.20;5.55;;;29.80;72.50;;;;;;1879701;74;21591;-84
2022/11/20 11:00:36;;;;;;;12.65;5.55;;;29.90;72.60;;;;;;1742609;81;21272;-86
2022/11/20 11:03:43;;;;;;;14.78;5.85;;;29.80;72.80;;;;;;1791257;79;21187;-85
2022/11/20 11:06:20;;;;;;;18.50;12.00;;;29.80;72.90;;;;;;1720451;81;21739;-84
2022/11/20 11:09:18;;;;;;;21.85;14.15;;;29.70;73.00;;;;;;1724094;80;21240;-84
2022/11/20 11:11:54;;;;;;;11.95;7.55;;;29.70;73.00;;;;;;1746317;80;21302;-85
2022/11/20 11:14:36;;;;;;;10.28;6.42;;;29.70;73.00;;;;;;1741866;81;21167;-85
2022/11/20 11:17:04;;;;;;;13.15;6.67;;;29.70;72.90;;;;;;1777564;79;21174;-84
2022/11/20 11:19:39;;;;;;;11.05;6.90;;;29.70;73.00;;;;;;1879143;75;21857;-84
2022/11/20 11:22:14;;;;;;;12.95;7.40;;;29.60;72.90;;;;;;1878879;75;21097;-85
2022/11/20 11:24:59;;;;;;;15.45;8.23;;;29.60;72.90;;;;;;1885257;75;21089;-87
2022/11/20 11:31:38;;;;;;;;;;;;;;;;;;;;;
2022/11/20 11:34:14;;;;;;;15.45;8.23;;;29.60;72.90;;;;;;1741516;82;21227;-85
2022/11/20 11:37:04;;;;;;;16.07;8.35;;;29.60;72.80;;;;;;1796705;79;21283;-85
2022/11/20 11:49:06;;;;;;;17.92;8.48;;;29.50;73.10;;;;;;1772479;79;21241;-84
2022/11/20 11:52:16;;;;;;;18.32;8.48;;;29.50;73.40;;;;;;1819317;78;21140;-85
2022/11/20 11:55:00;;;;;;;18.55;9.25;;;29.50;73.40;;;;;;1800268;78;21206;-86
2022/11/20 11:57:54;;;;;;;23.98;9.30;;;29.50;73.50;;;;;;1802907;79;21714;-86
2022/11/20 12:00:25;;;;;;;25.95;9.43;;;29.50;73.60;;;;;;1806887;76;21632;-85
2022/11/20 12:03:25;;;;;;;18.37;9.33;;;29.40;73.70;;;;;;1805964;79;21139;-85
2022/11/20 12:06:11;;;;;;;24.50;13.40;;;29.40;73.80;;;;;;1724773;82;21240;-85
2022/11/20 12:08:47;;;;;;;21.73;9.63;;;29.40;74.10;;;;;;1867767;75;21120;-84
2022/11/20 12:12:05;;;;;;;17.45;9.80;;;29.40;74.20;;;;;;1883803;75;21124;-85
2022/11/20 12:15:14;;;;;;;21.25;9.95;;;29.40;74.50;;;;;;1873483;74;21156;-86
2022/11/20 12:17:51;;;;;;;15.83;9.75;;;29.30;74.60;;;;;;1879976;75;21161;-85
2022/11/20 12:20:18;;;;;;;21.15;10.70;;;29.40;74.80;;;;;;1879881;75;21672;-85
2022/11/20 12:23:09;;;;;;;20.97;10.58;;;29.30;74.80;;;;;;1887812;75;21128;-86
2022/11/20 12:26:02;;;;;;;16.87;9.68;;;29.20;74.80;;;;;;1885750;75;21186;-86
2022/11/20 12:28:47;;;;;;;22.75;10.05;;;29.20;74.90;;;;;;1818510;76;21237;-86
2022/11/20 12:31:58;;;;;;;22.50;9.85;;;29.20;75.00;;;;;;1840089;75;21327;-86
2022/11/20 12:34:40;;;;;;;19.95;10.03;;;29.20;75.00;;;;;;1888492;75;21137;-86
2022/11/20 12:37:26;;;;;;;18.90;9.68;;;29.20;75.10;;;;;;1872395;75;21172;-87
2022/11/20 12:40:02;;;;;;;20.45;9.85;;;29.20;75.20;;;;;;1882729;75;21117;-87
2022/11/20 12:49:02;;;;;;;16.73;10.23;;;29.20;75.50;;;;;;1764369;74;21223;-88
2022/11/20 12:51:39;;;;;;;;;;;29.20;75.50;;;;;;1878284;75;21147;-88
2022/11/20 12:54:32;;;;;;;20.75;10.75;;;29.20;75.40;;;;;;1891273;75;20190;-88
2022/11/20 12:57:18;;;;;;;20.62;10.55;;;29.20;75.70;;;;;;1882480;75;21133;-88
2022/11/20 13:00:10;;;;;;;17.65;11.22;;;29.20;76.00;;;;;;1883359;75;21179;-88
2022/11/20 13:03:20;;;;;;;20.57;10.40;;;29.10;76.10;;;;;;1833670;75;21253;-88
2022/11/20 13:06:12;;;;;;;16.65;10.28;;;29.10;76.20;;;;;;1881612;75;21077;-87
2022/11/20 13:12:00;;;;;;;14.78;9.00;;;29.10;76.40;;;;;;1856551;75;21123;-87
2022/11/20 13:15:11;;;;;;;16.82;9.48;;;29.00;76.50;;;;;;1931484;73;21157;-86
2022/11/20 13:17:46;;;;;;;16.20;9.88;;;29.00;76.60;;;;;;1929917;72;21121;-87
2022/11/20 13:20:19;;;;;;;21.12;10.75;;;29.00;76.70;;;;;;1962614;72;21247;-86
2022/11/20 13:22:55;;;;;;;21.33;11.13;;;29.00;76.80;;;;;;1966608;72;21175;-86
2022/11/20 13:25:34;;;;;;;19.62;11.43;;;29.00;76.90;;;;;;1951372;72;21152;-88
2022/11/20 13:28:14;;;;;;;19.40;10.72;;;29.00;76.90;;;;;;1933161;73;21648;-85
2022/11/20 13:30:55;;;;;;;14.45;9.43;;;29.00;76.80;;;;;;1962310;72;21177;-87
2022/11/20 13:33:40;;;;;;;15.98;8.88;;;29.00;77.00;;;;;;1964586;72;21674;-87
2022/11/20 13:36:28;;;;;;;15.20;9.25;;;29.00;77.00;;;;;;1948255;72;21055;-85
2022/11/20 13:39:01;;;;;;;14.40;8.50;;;29.00;78.00;;;;;;1970945;72;21201;-86
2022/11/20 13:41:39;;;;;;;14.50;8.28;;;29.00;77.10;;;;;;1961610;72;21092;-85
2022/11/20 13:44:39;;;;;;;14.60;7.53;;;29.00;77.10;;;;;;1973957;72;21701;-87
2022/11/20 13:47:28;;;;;;;17.27;8.23;;;29.00;77.00;;;;;;1935919;71;21277;-88
2022/11/20 13:50:06;;;;;;;18.15;8.68;;;29.00;77.10;;;;;;1904927;74;21134;-86
2022/11/20 13:53:04;;;;;;;15.55;8.88;;;29.00;77.10;;;;;;1950649;72;21117;-86
2022/11/20 13:55:56;;;;;;;14.63;8.40;;;29.00;77.20;;;;;;1969193;72;21130;-87
2022/11/20 13:58:40;;;;;;;15.85;8.50;;;29.00;77.30;;;;;;1966592;72;21184;-87
2022/11/20 14:01:12;;;;;;;10.75;7.22;;;28.90;77.50;;;;;;1973306;72;21522;-87
2022/11/20 14:03:45;;;;;;;16.10;8.45;;;28.90;77.50;;;;;;1970936;72;21119;-87
2022/11/20 14:06:34;;;;;;;12.00;7.87;;;29.00;77.50;;;;;;1958377;72;21132;-87
2022/11/20 14:09:16;;;;;;;16.20;8.35;;;29.00;77.50;;;;;;1970586;72;21136;-87
2022/11/20 14:11:50;;;;;;;22.70;8.45;;;29.00;77.60;;;;;;1952403;72;21300;-87
2022/11/20 14:14:26;;;;;;;14.83;8.83;;;29.00;77.70;;;;;;1959114;72;21210;-87
2022/11/20 14:19:55;;;;;;;17.00;10.00;;;29.00;77.90;;;;;;1939544;72;21593;-86
2022/11/20 14:23:04;;;;;;;;;;;;;;;;;;;;;
2022/11/20 14:25:47;;;;;;;16.80;9.10;;;29.00;78.10;;;;;;1840782;74;21165;-86